Flight Track Log - Related Links

Times and Time Zones

All times are in EDT time to prevent confusion due to time zone crossing. See the CSJ405 flight status page for this flight to view local times or setup timezone preferences in your user account.

Time Position Orientation Groundspeed Altitude Reporting Facility
EDT Latitude Longitude Course Direction KTS MPH feet Rate Location/Type
Mon 04:45:46 PM 40.9067 -81.3689 90° East 133 153 3,500  Level Cleveland Center
Mon 04:46:46 PM 40.9153 -81.3333 72° East 99 114 4,900 1,150 Climbing Cleveland Center
Mon 04:47:46 PM 40.9217 -81.2947 78° East 114 131 5,800 850 Climbing Cleveland Center
Mon 04:48:46 PM 40.9303 -81.2483 76° East 130 150 6,600 900 Climbing Cleveland Center
Mon 04:49:00 PM 40.9167 -81.1282 90° East  Level FlightAware
Mon 04:49:46 PM 40.9328 -81.2014 86° East 138 159 7,600  Level Cleveland Center
Mon 04:50:00 PM 40.9167 -81.0669 90° East  Level FlightAware
Mon 04:50:46 PM 40.9328 -81.1575 90° East 133 153 8,500  Level Cleveland Center
Mon 04:51:00 PM 40.9167 -81.0055 90° East  Level FlightAware
Mon 04:51:46 PM 40.9311 -81.1053 92° East 126 145 9,200  Level Cleveland Center
Mon 04:52:46 PM 40.9292 -81.0531 93° East 126 145 9,900 650 Climbing Cleveland Center
Mon 04:53:46 PM 40.9294 -81.0036 90° East 132 152 10,500 500 Climbing Cleveland Center
Mon 04:54:46 PM 40.9297 -80.9514 90° East 138 159 10,900 252 Climbing Cleveland Center
Mon 04:55:45 PM 40.9319 -80.8908 87° East 148 170 11,000 50 Climbing Cleveland Center
Mon 04:56:47 PM 40.9383 -80.8278 82° East 161 185 11,000  Level Cleveland Center
Mon 04:57:46 PM 40.9406 -80.7617 87° East 167 192 11,000  Level Cleveland Center
Mon 04:58:46 PM 40.9428 -80.6986 87° East 172 198 11,000  Level Cleveland Center
Mon 04:59:46 PM 40.9447 -80.6325 88° East 172 198 11,000  Level Cleveland Center
Mon 05:00:45 PM 40.9428 -80.5694 92° East 172 198 11,000  Level Cleveland Center
Mon 05:01:46 PM 40.9447 -80.5089 88° East 172 198 11,000  Level Cleveland Center
Mon 05:02:45 PM 40.9425 -80.4428 93° East 172 198 11,000  Level Cleveland Center
Mon 05:03:46 PM 40.9425 -80.3797 90° East 172 198 11,000  Level Cleveland Center
Mon 05:06:34 PM 40.9483 -80.2036 87° East 187 215 11,000  Level Cleveland Center
Mon 05:07:34 PM 40.9503 -80.1406 88° East 192 221 11,000  Level Cleveland Center
Mon 05:08:34 PM 40.9500 -80.0800 90° East 180 207 11,000  Level Cleveland Center
Mon 05:09:34 PM 40.9517 -80.0167 88° East 174 200 11,000  Level Cleveland Center
Mon 05:10:34 PM 40.9514 -79.9536 90° East 174 200 11,000 300 Level Cleveland Center
Mon 05:11:34 PM 40.9531 -79.8986 88° East 164 189 11,600 650 Climbing Cleveland Center
Mon 05:12:34 PM 40.9550 -79.8464 87° East 151 174 12,300 650 Climbing Cleveland Center
Mon 05:13:34 PM 40.9567 -79.7967 87° East 140 161 12,900 350 Climbing Cleveland Center
Mon 05:14:34 PM 40.9542 -79.7392 93° East 140 161 13,000 50 Climbing Cleveland Center
Mon 05:15:34 PM 40.9536 -79.6758 91° East 156 180 13,000  Level Cleveland Center
Mon 05:16:34 PM 40.9553 -79.6153 88° East 162 186 13,000  Level Cleveland Center
Mon 05:17:34 PM 40.9547 -79.5494 91° East 162 186 13,000  Level Cleveland Center
Mon 05:18:34 PM 40.9561 -79.4861 88° East 162 186 13,000  Level Cleveland Center
Mon 05:19:34 PM 40.9556 -79.4200 91° East 167 192 13,000  Level Cleveland Center
Mon 05:20:34 PM 40.9569 -79.3569 88° East 167 192 13,000  Level Cleveland Center
Mon 05:21:34 PM 40.9583 -79.2936 88° East 167 192 13,000 50 Level Cleveland Center
Mon 05:22:34 PM 40.9597 -79.2303 88° East 172 198 13,100 50 Climbing Cleveland Center
Mon 05:23:34 PM 40.9589 -79.1672 91° East 172 198 13,100  Level Cleveland Center
Mon 05:24:34 PM 40.9581 -79.1011 91° East 172 198 13,100  Level Cleveland Center
Mon 05:25:34 PM 40.9594 -79.0378 88° East 172 198 13,100  Level Cleveland Center
Mon 05:26:34 PM 40.9606 -78.9719 89° East 172 198 13,100  Level Cleveland Center
Mon 05:27:34 PM 40.9617 -78.9086 89° East 177 204 13,100  Level Cleveland Center
Mon 05:28:34 PM 40.9608 -78.8453 91° East 177 204 13,100  Level Cleveland Center
Mon 05:29:34 PM 40.9597 -78.7822 91° East 177 204 13,100 -32 Level Cleveland Center
Mon 05:31:41 PM 40.9578 -78.6467 91° East 177 204 13,000 -32 Descending New Center
Mon 05:32:42 PM 40.9578 -78.5836 90° East 177 204 13,000  Level New Center
Mon 05:33:40 PM 40.9578 -78.5231 90° East 177 204 13,000  Level New Center
Mon 05:34:41 PM 40.9600 -78.4572 87° East 177 204 13,000  Level New Center
Mon 05:35:41 PM 40.9622 -78.3889 88° East 172 198 13,000  Level New Center
Mon 05:36:41 PM 40.9622 -78.3256 90° East 172 198 13,000  Level New Center
Mon 05:37:42 PM 40.9639 -78.2625 88° East 172 198 13,000  Level New Center
Mon 05:38:40 PM 40.9658 -78.1994 88° East 172 198 13,000  Level New Center
Mon 05:39:41 PM 40.9697 -78.1367 85° East 172 198 13,000  Level New Center
Mon 05:40:41 PM 40.9697 -78.0708 90° East 172 198 13,000  Level New Center
Mon 05:41:42 PM 40.9717 -78.0050 88° East 177 204 13,000  Level New Center
Mon 05:42:42 PM 40.9733 -77.9419 88° East 177 204 13,000  Level New Center
Mon 05:43:40 PM 40.9753 -77.8761 88° East 177 204 13,000  Level New Center
Mon 05:44:40 PM 40.9769 -77.8131 88° East 177 204 13,000  Level New Center
Mon 05:45:41 PM 40.9767 -77.7469 90° East 177 204 13,000  Level New Center
Mon 05:46:41 PM 40.9781 -77.6894 88° East 177 204 13,000  Level New Center
Mon 05:47:41 PM 40.9797 -77.6264 88° East 177 204 13,000  Level New Center
Mon 05:48:42 PM 40.9814 -77.5606 88° East 177 204 13,000  Level New Center
Mon 05:49:40 PM 40.9808 -77.4944 91° East 177 204 13,000 -203 Level New Center
Mon 05:50:40 PM 40.9828 -77.4258 88° East 177 204 12,600 -295 Descending New Center
Mon 05:51:42 PM 40.9825 -77.3572 90° East 177 204 12,400 -246 Descending New Center
Mon 05:52:42 PM 40.9800 -77.2881 93° East 177 204 12,100 -350 Descending New Center
Mon 05:53:42 PM 40.9817 -77.2194 88° East 177 204 11,700 -407 Descending New Center
Mon 05:54:40 PM 40.9833 -77.1511 88° East 177 204 11,300 -403 Descending New Center
Mon 05:55:41 PM 40.9847 -77.0825 88° East 177 204 10,900 -347 Descending New Center
Mon 05:56:41 PM 40.9864 -77.0139 88° East 177 204 10,600 -347 Descending New Center
Mon 05:57:42 PM 40.9856 -76.9478 91° East 177 204 10,200 -403 Descending New Center
Mon 05:58:40 PM 40.9850 -76.8789 91° East 177 204 9,800 -454 Descending New Center
Mon 05:59:41 PM 40.9822 -76.8100 93° East 177 204 9,300 -446 Descending New Center
Mon 06:00:41 PM 40.9858 -76.7389 86° East 177 204 8,900 -202 Descending New Center
Mon 06:01:40 PM 40.9872 -76.6703 88° East 177 204 8,900  Level New Center
Mon 06:02:41 PM 40.9908 -76.6017 86° East 182 209 8,900  Level New Center
Mon 06:03:41 PM 40.9922 -76.5303 89° East 177 204 8,900  Level New Center
Mon 06:04:42 PM 40.9911 -76.4669 91° East 177 204 8,900  Level New Center
Mon 06:05:42 PM 40.9900 -76.4008 91° East 177 204 8,900  Level New Center
Mon 06:06:40 PM 40.9906 -76.3461 89° East 177 204 8,900 -153 Level New Center
Mon 06:07:40 PM 40.9917 -76.2775 89° East 182 209 8,600 -397 Descending New Center
Mon 06:08:41 PM 40.9931 -76.2006 89° East 182 209 8,100 -397 Descending New Center
Mon 06:09:41 PM 40.9919 -76.1344 91° East 182 209 7,800 -400 Descending New Center
Mon 06:10:41 PM 40.9931 -76.0658 89° East 182 209 7,300 -504 Descending New Center
Mon 06:11:40 PM 40.9936 -76.0053 89° East 182 209 6,800 -605 Descending New Center
Mon 06:12:40 PM 40.9950 -75.9283 89° East 182 209 6,100 -600 Descending New Center
Mon 06:13:40 PM 40.9978 -75.8600 87° East 177 204 5,600 -66 Descending New Center
Mon 06:15:00 PM 40.9948 -75.7762 93° East  Level FlightAware
Mon 06:22:00 PM 40.9833 -75.3360 90° East  Level FlightAware
Mon 06:23:00 PM 40.9834 -75.2731 90° East  Level FlightAware
Mon 06:24:00 PM 40.9835 -75.2102 90° East  Level FlightAware
Mon 06:25:00 PM 40.9835 -75.1474 90° East  Level FlightAware
Mon 06:26:00 PM 40.9835 -75.0845 90° East  Level FlightAware
Mon 06:27:00 PM 40.9835 -75.0216 90° East  Level FlightAware
Mon 06:27:50 PM 41.0000 -75.0000 108° East 168 193 5,100  Level New TRACON
Mon 06:28:00 PM 40.9834 -74.9587 90° East  Level FlightAware
Mon 06:28:56 PM 40.9833 -74.9333 108° East 164 189 5,000  Level New TRACON
Mon 06:29:00 PM 40.9833 -74.8958 90° East  Level FlightAware
Mon 06:29:56 PM 40.9667 -74.8667 108° East 165 190 4,900  Level New TRACON
Mon 06:30:00 PM 40.9774 -74.8339 103° East  Level FlightAware
Mon 06:30:56 PM 40.9500 -74.8167 114° Southeast 169 194 4,400  Level New TRACON
Mon 06:31:00 PM 40.9663 -74.7728 104° East  Level FlightAware
Mon 06:31:50 PM 40.9333 -74.7667 114° Southeast 163 188 4,100  Level New TRACON
Mon 06:32:00 PM 40.9552 -74.7116 104° East  Level FlightAware
Mon 06:32:50 PM 40.9500 -74.7000 72° East 172 198 4,100  Level New TRACON
Mon 06:33:00 PM 40.9420 -74.6513 108° East  Level FlightAware
Mon 06:33:50 PM 40.9667 -74.6500 66° East 172 198 4,100  Level New TRACON
Mon 06:34:44 PM 40.9667 -74.6000 90° East 165 190 4,100  Level New TRACON
Mon 06:35:44 PM 40.9833 -74.5333 72° East 160 184 4,100 -48 Level New TRACON
Mon 06:36:50 PM 40.9833 -74.4667 90° East 160 184 4,000 -350 Descending New TRACON
Mon 06:37:44 PM 41.0000 -74.4167 66° East 166 191 3,400 -579 Descending New TRACON
Mon 06:38:44 PM 41.0000 -74.3667 90° East 167 192 2,900 -524 Descending New TRACON
Mon 06:39:50 PM 41.0000 -74.3000 90° East 177 204 2,300 -381 Descending New TRACON
Mon 06:40:50 PM 40.9667 -74.3000 180° South 147 169 2,100 -421 Descending New TRACON
Mon 06:41:44 PM 40.9333 -74.2833 159° South 145 167 1,500 -600 Descending New TRACON
Mon 06:42:50 PM 40.8833 -74.2500 153° Southeast 147 169 900 -545 Descending New TRACON
Mon 06:45:00 PM 40.8667 -74.2667 217° Southwest  Level FlightAware
Mon 06:52:00 PM 40.8752 -74.2814 217° Southwest  Level Estimated
Mon 06:53:00 PM 40.8752 -74.2814 217° Southwest  Level Estimated

Login

Don't have an account? Register now (free) for customized features, flight alerts, and more!